Time;durP1;ratioP1;P1;durP2;ratioP2;P2;SDS_P1;SDS_P2;PMS_P1;PMS_P2;Temp;Humidity;BMP_temperature;BMP_pressure;BME280_temperature;BME280_humidity;BME280_pressure;Samples;Min_cycle;Max_cycle;Signal;HPM_P1;HPM_P2
2022/06/01 00:00:09;;;;;;;2.08;1.08;;;14.70;59.90;;;;;;4993465;28;20066;-83
2022/06/01 00:02:36;;;;;;;3.15;1.35;;;14.70;60.20;;;;;;5011347;28;20030;-83
2022/06/01 00:05:02;;;;;;;1.73;1.10;;;14.60;59.80;;;;;;5011929;28;20109;-84
2022/06/01 00:07:28;;;;;;;2.30;1.33;;;14.60;60.10;;;;;;5013191;28;20439;-83
2022/06/01 00:09:55;;;;;;;3.03;1.58;;;14.50;61.50;;;;;;5003871;28;20030;-83
2022/06/01 00:12:22;;;;;;;2.00;1.27;;;14.50;61.20;;;;;;5005541;28;20029;-83
2022/06/01 00:14:48;;;;;;;1.80;1.30;;;14.40;60.80;;;;;;5012804;28;20109;-83
2022/06/01 00:17:16;;;;;;;2.03;1.13;;;14.40;61.10;;;;;;4993483;28;20393;-83
2022/06/01 00:19:42;;;;;;;3.03;1.38;;;14.30;61.50;;;;;;4994577;28;20031;-83
2022/06/01 00:22:17;;;;;;;1.80;1.10;;;14.30;61.60;;;;;;5012506;28;20095;-83
2022/06/01 00:24:52;;;;;;;2.08;1.40;;;14.30;60.90;;;;;;5008555;28;20030;-82
2022/06/01 00:27:18;;;;;;;2.95;1.80;;;14.20;61.90;;;;;;5009328;28;20451;-83
2022/06/01 00:29:45;;;;;;;1.88;1.38;;;14.10;62.10;;;;;;4993208;28;20026;-83
2022/06/01 00:32:13;;;;;;;3.30;1.52;;;14.00;62.10;;;;;;4996625;28;20031;-83
2022/06/01 00:34:39;;;;;;;2.20;1.40;;;14.00;62.60;;;;;;5010698;28;20038;-83
2022/06/01 00:37:05;;;;;;;2.92;1.52;;;14.00;63.00;;;;;;4997413;28;20069;-83
2022/06/01 00:39:31;;;;;;;3.28;1.60;;;14.10;62.50;;;;;;4996729;28;20056;-83
2022/06/01 00:42:18;;;;;;;1.67;1.35;;;14.20;62.10;;;;;;4997027;28;20054;-83
2022/06/01 00:44:45;;;;;;;1.88;1.20;;;14.10;62.20;;;;;;4995700;28;20141;-83
2022/06/01 00:47:12;;;;;;;1.95;1.40;;;14.10;62.00;;;;;;5006243;28;20054;-83
2022/06/01 00:49:41;;;;;;;4.47;1.70;;;14.20;61.40;;;;;;4998193;28;20030;-83
2022/06/01 00:52:07;;;;;;;1.65;1.17;;;14.20;61.40;;;;;;4996515;28;20023;-83
2022/06/01 00:54:33;;;;;;;1.80;1.50;;;14.20;61.60;;;;;;4997640;28;20110;-83
2022/06/01 00:57:04;;;;;;;1.88;1.42;;;14.20;62.00;;;;;;4995134;28;20062;-83
2022/06/01 00:59:33;;;;;;;4.10;1.48;;;14.10;62.20;;;;;;4997996;28;20033;-84
2022/06/01 01:02:02;;;;;;;3.08;1.08;;;14.00;61.80;;;;;;4996469;28;20026;-83
2022/06/01 01:04:41;;;;;;;;;;;;;;;;;;;;;
2022/06/01 01:07:12;;;;;;;3.90;1.70;;;13.80;63.30;;;;;;4997452;28;20500;-83
2022/06/01 01:09:38;;;;;;;4.15;1.58;;;13.80;63.40;;;;;;4996435;28;20312;-83
2022/06/01 01:12:08;;;;;;;2.45;1.58;;;13.80;63.20;;;;;;5007043;28;20061;-83
2022/06/01 01:14:38;;;;;;;1.80;1.47;;;13.70;63.40;;;;;;5016150;28;20046;-83
2022/06/01 01:17:05;;;;;;;2.30;1.40;;;13.70;62.80;;;;;;5012295;28;20279;-83
2022/06/01 01:19:43;;;;;;;2.40;1.63;;;13.70;63.10;;;;;;4994842;28;20045;-83
2022/06/01 01:22:21;;;;;;;3.78;1.88;;;13.70;62.40;;;;;;5008269;28;20018;-83
2022/06/01 01:25:16;;;;;;;3.13;1.90;;;13.80;62.70;;;;;;5002308;28;20069;-83
2022/06/01 01:27:42;;;;;;;2.83;1.58;;;13.80;62.40;;;;;;5016412;28;20141;-83
2022/06/01 01:30:39;;;;;;;1.92;1.63;;;13.70;62.30;;;;;;5015808;28;20026;-83
2022/06/01 01:33:16;;;;;;;2.60;1.70;;;13.70;62.90;;;;;;5005647;28;20107;-83
2022/06/01 01:35:44;;;;;;;2.00;1.58;;;13.70;63.40;;;;;;5013175;28;20025;-83
2022/06/01 01:38:24;;;;;;;2.88;1.45;;;13.60;63.80;;;;;;4995858;28;20053;-83
2022/06/01 01:41:07;;;;;;;4.57;1.90;;;13.50;64.00;;;;;;4997233;28;20112;-83
2022/06/01 01:43:37;;;;;;;6.13;1.40;;;13.50;64.00;;;;;;4995506;28;20766;-83
2022/06/01 01:46:03;;;;;;;;;;;13.50;64.40;;;;;;4997176;28;20125;-83
2022/06/01 01:48:30;;;;;;;2.42;1.67;;;13.50;64.00;;;;;;4994510;28;19953;-83
2022/06/01 01:50:56;;;;;;;2.55;1.45;;;13.30;63.80;;;;;;4995785;28;20490;-83
2022/06/01 01:53:22;;;;;;;2.20;1.50;;;13.30;63.60;;;;;;4995374;28;20061;-83
2022/06/01 01:55:59;;;;;;;1.92;1.55;;;13.30;64.10;;;;;;4995549;28;20061;-83
2022/06/01 01:58:56;;;;;;;2.17;1.70;;;13.10;63.90;;;;;;4996023;28;20037;-83
2022/06/01 02:01:46;;;;;;;3.17;1.67;;;13.10;64.50;;;;;;4995561;28;20160;-83
2022/06/01 02:07:49;;;;;;;2.80;1.95;;;12.80;65.90;;;;;;4995855;28;20040;-83
2022/06/01 02:13:02;;;;;;;3.70;1.65;;;12.80;65.60;;;;;;5010438;28;20041;-83
2022/06/01 02:15:38;;;;;;;4.30;1.83;;;12.90;65.70;;;;;;4994927;28;20595;-83
2022/06/01 02:18:11;;;;;;;4.38;1.80;;;12.90;65.10;;;;;;4993822;28;20037;-83
2022/06/01 02:20:42;;;;;;;5.00;1.67;;;12.90;64.50;;;;;;5002876;28;20022;-83
2022/06/01 02:23:11;;;;;;;2.65;1.48;;;13.00;64.40;;;;;;4997409;28;20026;-83
2022/06/01 02:25:39;;;;;;;2.30;1.80;;;13.00;64.90;;;;;;4996519;28;20061;-83
2022/06/01 02:28:06;;;;;;;4.05;2.15;;;13.00;65.00;;;;;;5009889;28;20026;-83
2022/06/01 02:30:36;;;;;;;2.83;1.88;;;13.00;65.10;;;;;;4999944;28;20026;-83
2022/06/01 02:33:05;;;;;;;2.10;1.30;;;12.90;65.30;;;;;;5013013;28;20042;-83
2022/06/01 02:35:55;;;;;;;5.07;1.60;;;12.90;65.20;;;;;;5014300;28;20502;-83
2022/06/01 02:38:26;;;;;;;5.57;1.85;;;12.90;65.70;;;;;;5013983;28;20045;-83
2022/06/01 02:40:52;;;;;;;3.25;1.90;;;12.80;65.80;;;;;;4994665;28;20050;-83
2022/06/01 02:43:18;;;;;;;1.60;1.50;;;12.80;65.90;;;;;;4996229;28;20080;-83
2022/06/01 02:45:44;;;;;;;2.33;1.75;;;12.80;65.80;;;;;;4994357;28;20050;-83
2022/06/01 02:48:10;;;;;;;3.55;1.92;;;12.70;66.80;;;;;;5013191;28;20042;-83
2022/06/01 02:50:37;;;;;;;3.22;1.70;;;12.70;66.10;;;;;;5014164;28;20033;-83
2022/06/01 02:53:04;;;;;;;2.38;1.70;;;12.70;66.20;;;;;;5014661;28;20033;-82
2022/06/01 02:55:32;;;;;;;1.95;1.23;;;12.80;66.60;;;;;;5011531;28;20082;-83
2022/06/01 02:57:59;;;;;;;4.35;1.73;;;12.80;66.50;;;;;;4994316;28;20547;-83
2022/06/01 03:00:28;;;;;;;2.42;1.73;;;12.80;66.60;;;;;;4995429;28;20030;-83
2022/06/01 03:02:57;;;;;;;3.83;1.95;;;12.70;66.00;;;;;;4994122;28;20536;-83
2022/06/01 03:05:25;;;;;;;6.18;1.90;;;12.60;66.40;;;;;;4995534;28;20101;-83
2022/06/01 03:07:51;;;;;;;5.80;2.05;;;12.60;67.00;;;;;;4994145;28;20109;-83
2022/06/01 03:10:23;;;;;;;3.33;1.90;;;12.50;66.90;;;;;;5010346;28;20034;-83
2022/06/01 03:12:49;;;;;;;4.70;2.00;;;12.50;67.00;;;;;;5009844;28;20400;-83
2022/06/01 03:15:17;;;;;;;5.40;2.15;;;12.30;67.30;;;;;;5013464;28;20036;-83
2022/06/01 03:17:43;;;;;;;3.60;1.90;;;12.30;67.10;;;;;;5013290;28;20025;-83
2022/06/01 03:20:11;;;;;;;1.92;1.73;;;12.30;67.80;;;;;;5013444;28;20089;-83
2022/06/01 03:22:39;;;;;;;2.58;1.77;;;12.40;67.50;;;;;;5014769;28;20025;-83
2022/06/01 03:25:14;;;;;;;2.35;1.63;;;12.30;67.60;;;;;;4998973;28;20035;-83
2022/06/01 03:27:40;;;;;;;5.97;2.33;;;12.30;68.10;;;;;;4996006;28;20031;-83
2022/06/01 03:30:10;;;;;;;3.28;1.80;;;12.20;68.30;;;;;;4994069;28;20026;-83
2022/06/01 03:32:56;;;;;;;4.03;2.10;;;12.20;68.60;;;;;;4999544;28;20443;-82
2022/06/01 03:35:24;;;;;;;4.10;2.00;;;12.20;68.50;;;;;;5009025;28;20054;-83
2022/06/01 03:37:51;;;;;;;2.72;2.00;;;12.20;68.10;;;;;;4994052;28;20019;-83
2022/06/01 03:40:19;;;;;;;3.55;1.90;;;12.20;67.70;;;;;;4995074;28;20033;-83
2022/06/01 03:42:45;;;;;;;3.15;1.98;;;12.20;67.60;;;;;;4993799;28;20077;-84
2022/06/01 03:47:58;;;;;;;2.72;2.00;;;12.30;67.10;;;;;;4993815;28;20531;-83
2022/06/01 03:50:26;;;;;;;4.20;2.20;;;12.10;68.30;;;;;;5010489;28;20034;-83
2022/06/01 03:52:52;;;;;;;6.40;2.33;;;12.00;68.00;;;;;;5008741;28;20504;-83
2022/06/01 03:55:34;;;;;;;4.10;2.08;;;12.00;68.10;;;;;;4993564;28;20027;-83
2022/06/01 03:58:01;;;;;;;2.67;1.90;;;12.10;67.90;;;;;;4994220;28;20034;-83
2022/06/01 04:00:27;;;;;;;4.28;1.90;;;12.10;68.00;;;;;;4993709;28;20026;-83
2022/06/01 04:02:54;;;;;;;5.20;1.75;;;12.00;67.20;;;;;;5001615;28;20105;-83
2022/06/01 04:05:21;;;;;;;2.50;2.17;;;12.00;67.20;;;;;;5013209;28;20033;-83
2022/06/01 04:07:47;;;;;;;2.50;1.73;;;12.00;67.10;;;;;;5014268;28;20032;-83
2022/06/01 04:10:13;;;;;;;2.88;2.08;;;12.00;67.20;;;;;;5005176;28;20054;-83
2022/06/01 04:12:39;;;;;;;2.60;1.65;;;12.00;67.20;;;;;;4997614;28;20034;-83
2022/06/01 04:15:06;;;;;;;3.17;1.92;;;12.00;67.10;;;;;;5013065;28;20054;-83
2022/06/01 04:17:32;;;;;;;2.83;1.60;;;12.00;67.50;;;;;;4997321;28;20023;-83
2022/06/01 04:19:58;;;;;;;2.83;1.92;;;12.00;67.60;;;;;;4999558;28;20042;-82
2022/06/01 04:22:24;;;;;;;3.30;1.83;;;11.90;68.10;;;;;;5015617;28;20471;-83
2022/06/01 04:24:49;;;;;;;2.85;1.80;;;11.90;67.60;;;;;;5009589;28;20982;-82
2022/06/01 04:27:16;;;;;;;3.33;1.90;;;11.90;67.20;;;;;;4997133;28;20411;-83
2022/06/01 04:29:41;;;;;;;3.45;1.92;;;11.90;67.10;;;;;;4997102;28;20034;-84
2022/06/01 04:32:12;;;;;;;4.93;1.98;;;11.80;67.30;;;;;;4998373;28;20537;-83
2022/06/01 04:34:38;;;;;;;2.63;1.88;;;11.80;67.60;;;;;;5015321;28;20033;-83
2022/06/01 04:37:04;;;;;;;4.03;2.63;;;11.80;67.50;;;;;;5004174;28;20533;-83
2022/06/01 04:39:30;;;;;;;3.38;2.17;;;11.80;67.50;;;;;;4997047;28;20105;-83
2022/06/01 04:41:56;;;;;;;3.33;1.83;;;11.90;67.50;;;;;;4997810;28;20394;-83
2022/06/01 04:44:22;;;;;;;3.28;1.95;;;11.90;67.10;;;;;;5012147;28;20088;-77
2022/06/01 04:46:48;;;;;;;2.92;2.00;;;11.90;67.10;;;;;;5004797;28;20110;-77
2022/06/01 04:49:13;;;;;;;2.72;2.17;;;12.00;66.90;;;;;;4995838;28;20080;-77
2022/06/01 04:51:40;;;;;;;5.30;2.72;;;12.00;67.00;;;;;;5011850;28;20030;-81
2022/06/01 04:54:07;;;;;;;3.25;2.35;;;12.10;67.20;;;;;;4996952;28;20598;-77
2022/06/01 04:56:33;;;;;;;3.53;2.33;;;12.00;67.40;;;;;;4997148;28;20049;-77
2022/06/01 04:58:59;;;;;;;3.97;2.47;;;12.00;67.60;;;;;;5001424;28;20026;-76
2022/06/01 05:01:24;;;;;;;5.07;2.65;;;12.00;67.60;;;;;;4996519;28;20023;-74
2022/06/01 05:03:50;;;;;;;4.40;2.33;;;12.00;67.60;;;;;;5007343;28;20561;-75
2022/06/01 05:06:16;;;;;;;3.85;2.45;;;12.00;68.40;;;;;;5010069;28;20037;-75
2022/06/01 05:08:42;;;;;;;4.18;2.50;;;12.00;68.40;;;;;;5021053;28;20034;-74
2022/06/01 05:11:08;;;;;;;4.63;2.80;;;12.00;68.60;;;;;;5003753;28;20052;-74
2022/06/01 05:13:33;;;;;;;3.25;2.15;;;12.00;68.60;;;;;;5013202;28;20041;-75
2022/06/01 05:16:04;;;;;;;3.33;2.10;;;12.00;68.90;;;;;;5011462;28;20068;-75
2022/06/01 05:18:30;;;;;;;5.78;2.97;;;12.00;69.00;;;;;;5015885;28;20026;-76
2022/06/01 05:20:55;;;;;;;5.25;3.03;;;12.10;68.90;;;;;;5012363;28;20029;-79
2022/06/01 05:23:23;;;;;;;4.13;2.47;;;12.20;68.80;;;;;;5010704;28;20081;-78
2022/06/01 05:25:51;;;;;;;4.22;2.63;;;12.20;68.90;;;;;;5013901;28;20026;-78
2022/06/01 05:28:21;;;;;;;4.75;2.97;;;12.30;68.80;;;;;;5015243;28;20029;-76
2022/06/01 05:30:47;;;;;;;6.75;2.67;;;12.30;68.70;;;;;;4998378;28;20563;-80
2022/06/01 05:33:13;;;;;;;4.47;2.80;;;12.30;68.70;;;;;;5021602;28;20034;-80
2022/06/01 05:35:39;;;;;;;4.03;2.88;;;12.30;68.70;;;;;;5014345;28;20026;-80
2022/06/01 05:38:05;;;;;;;3.95;2.13;;;12.30;69.50;;;;;;5008055;28;20488;-80
2022/06/01 05:40:30;;;;;;;5.05;3.20;;;12.30;69.70;;;;;;5005879;28;20047;-81
2022/06/01 05:42:58;;;;;;;6.18;3.17;;;12.30;70.10;;;;;;5014575;28;20030;-81
2022/06/01 05:45:24;;;;;;;4.45;3.22;;;12.40;69.40;;;;;;4994746;28;20089;-81
2022/06/01 05:47:50;;;;;;;6.32;3.15;;;12.50;69.80;;;;;;4995348;28;20030;-77
2022/06/01 05:50:16;;;;;;;4.95;2.88;;;12.50;70.10;;;;;;4995277;28;20035;-75
2022/06/01 05:52:42;;;;;;;4.68;2.90;;;12.60;69.80;;;;;;4995485;28;20027;-74
2022/06/01 05:55:12;;;;;;;4.28;3.00;;;12.60;70.30;;;;;;4994787;28;20089;-74
2022/06/01 05:57:38;;;;;;;8.00;3.10;;;12.60;69.90;;;;;;5004396;28;20014;-74
2022/06/01 06:00:07;;;;;;;5.88;2.97;;;12.70;69.70;;;;;;5014939;28;20504;-74
2022/06/01 06:02:33;;;;;;;3.30;2.30;;;12.70;69.70;;;;;;4996354;28;20038;-74
2022/06/01 06:04:58;;;;;;;6.20;3.08;;;12.70;70.40;;;;;;5009964;28;20038;-74
2022/06/01 06:07:24;;;;;;;4.32;2.85;;;12.80;69.80;;;;;;4993882;28;20030;-74
2022/06/01 06:09:50;;;;;;;5.93;3.10;;;12.80;70.00;;;;;;4993784;28;20030;-74
2022/06/01 06:12:15;;;;;;;5.80;2.30;;;12.80;70.30;;;;;;5006996;28;20053;-74
2022/06/01 06:14:41;;;;;;;6.43;2.40;;;12.90;70.80;;;;;;5014230;28;20076;-74
2022/06/01 06:17:07;;;;;;;5.93;2.88;;;12.90;71.10;;;;;;5007359;28;20369;-74
2022/06/01 06:19:33;;;;;;;4.03;2.47;;;13.00;71.70;;;;;;4994845;28;20121;-75
2022/06/01 06:21:59;;;;;;;4.13;2.45;;;13.00;71.40;;;;;;5012723;28;20029;-74
2022/06/01 06:24:24;;;;;;;4.10;1.90;;;13.10;71.10;;;;;;5003444;28;20108;-74
2022/06/01 06:26:50;;;;;;;3.80;2.47;;;13.20;72.00;;;;;;4994905;28;20022;-75
2022/06/01 06:29:18;;;;;;;4.63;2.65;;;13.30;70.90;;;;;;4993477;28;20448;-74
2022/06/01 06:31:44;;;;;;;2.42;1.92;;;13.30;72.30;;;;;;5009595;28;20082;-74
2022/06/01 06:34:10;;;;;;;3.13;2.15;;;13.30;72.60;;;;;;5012539;28;20741;-74
2022/06/01 06:36:35;;;;;;;4.65;2.17;;;13.40;72.10;;;;;;5014304;28;20061;-74
2022/06/01 06:39:01;;;;;;;3.90;2.13;;;13.50;72.30;;;;;;5008597;28;20105;-74
2022/06/01 06:41:27;;;;;;;6.97;2.55;;;13.60;71.30;;;;;;4994416;28;20047;-74
2022/06/01 06:43:53;;;;;;;7.22;2.70;;;13.60;71.10;;;;;;5009251;28;20045;-74
2022/06/01 06:46:21;;;;;;;5.05;2.88;;;13.70;72.50;;;;;;4993223;28;20053;-74
2022/06/01 06:48:48;;;;;;;4.47;1.83;;;13.70;71.90;;;;;;4994369;28;20449;-74
2022/06/01 06:51:14;;;;;;;6.00;2.30;;;13.80;71.50;;;;;;4994565;28;20464;-74
2022/06/01 06:53:40;;;;;;;3.25;1.83;;;13.90;72.20;;;;;;4994299;28;20042;-74
2022/06/01 06:56:06;;;;;;;4.03;2.17;;;13.90;71.90;;;;;;5009381;28;20022;-74
2022/06/01 06:58:33;;;;;;;5.68;1.85;;;14.00;71.00;;;;;;5006185;28;20044;-74
2022/06/01 07:00:59;;;;;;;5.60;1.80;;;14.10;72.00;;;;;;4994165;28;20220;-74
2022/06/01 07:03:24;;;;;;;6.53;1.90;;;14.10;71.50;;;;;;5009177;28;20410;-74
2022/06/01 07:06:09;;;;;;;4.90;1.70;;;14.20;71.70;;;;;;4994123;28;20028;-74
2022/06/01 07:08:40;;;;;;;3.08;1.40;;;14.30;71.70;;;;;;4993980;28;20390;-74
2022/06/01 07:11:06;;;;;;;2.45;1.73;;;14.40;71.10;;;;;;4999068;28;20072;-74
2022/06/01 07:13:32;;;;;;;4.07;1.83;;;14.50;70.60;;;;;;5013775;28;20506;-74
2022/06/01 07:16:08;;;;;;;6.72;2.03;;;14.60;70.50;;;;;;5010427;28;20060;-74
2022/06/01 07:18:36;;;;;;;3.97;1.80;;;14.70;70.10;;;;;;4994122;28;20035;-75
2022/06/01 07:21:02;;;;;;;5.20;1.35;;;14.80;69.40;;;;;;5003950;28;20030;-74
2022/06/01 07:23:28;;;;;;;3.83;1.77;;;14.80;69.20;;;;;;5009778;28;20034;-75
2022/06/01 07:25:54;;;;;;;3.30;1.75;;;15.10;68.50;;;;;;4993851;28;20026;-75
2022/06/01 07:28:22;;;;;;;2.85;1.00;;;15.50;67.00;;;;;;4993617;28;20524;-74
2022/06/01 07:30:56;;;;;;;2.65;1.00;;;16.20;63.70;;;;;;4993849;28;20153;-74
2022/06/01 07:33:28;;;;;;;3.08;1.83;;;17.50;59.50;;;;;;5005677;28;20029;-75
2022/06/01 07:35:55;;;;;;;2.53;0.93;;;19.70;54.60;;;;;;5013398;28;20909;-75
2022/06/01 07:43:53;;;;;;;1.35;0.52;;;29.00;33.00;;;;;;4993661;28;20033;-75
2022/06/01 07:46:19;;;;;;;1.67;0.60;;;31.00;31.10;;;;;;4995162;28;20116;-76
2022/06/01 07:48:46;;;;;;;1.55;0.50;;;32.30;28.50;;;;;;4997830;28;20021;-76
2022/06/01 07:51:13;;;;;;;1.08;0.50;;;32.60;25.10;;;;;;4997768;28;20034;-75
2022/06/01 07:53:39;;;;;;;2.40;0.50;;;33.80;25.30;;;;;;4998060;28;20023;-76
2022/06/01 07:56:04;;;;;;;1.30;0.50;;;34.20;21.00;;;;;;4997594;28;20038;-76
2022/06/01 07:58:30;;;;;;;2.20;0.65;;;34.80;22.80;;;;;;5013997;28;20045;-75
2022/06/01 08:00:56;;;;;;;18.27;2.83;;;34.90;22.80;;;;;;5008212;28;20082;-76
2022/06/01 08:03:21;;;;;;;4.30;0.80;;;35.80;22.80;;;;;;4997518;28;20477;-76
2022/06/01 08:05:47;;;;;;;1.30;0.50;;;36.30;21.20;;;;;;4997374;28;20070;-75
2022/06/01 08:08:13;;;;;;;3.90;0.70;;;36.30;20.40;;;;;;4997411;28;20501;-76
2022/06/01 08:10:39;;;;;;;1.13;0.40;;;36.70;20.90;;;;;;4998990;28;20034;-76
2022/06/01 08:13:10;;;;;;;2.00;0.60;;;36.60;20.20;;;;;;5005848;28;20109;-75
2022/06/01 08:15:44;;;;;;;1.48;0.50;;;37.30;19.00;;;;;;4997364;28;20508;-75
2022/06/01 08:18:13;;;;;;;1.73;0.65;;;37.60;18.90;;;;;;4997149;28;20030;-75
2022/06/01 08:20:39;;;;;;;1.67;0.43;;;37.90;19.50;;;;;;5004237;28;20121;-75
2022/06/01 08:23:06;;;;;;;1.60;0.43;;;38.20;18.80;;;;;;5017218;28;20092;-75
2022/06/01 08:25:33;;;;;;;1.85;0.60;;;38.10;18.20;;;;;;5011465;28;20045;-75
2022/06/01 08:27:59;;;;;;;1.38;0.47;;;38.10;17.80;;;;;;4997144;28;20049;-76
2022/06/01 08:30:27;;;;;;;11.75;2.15;;;37.40;17.60;;;;;;5012124;28;20537;-75
2022/06/01 08:32:54;;;;;;;6.80;0.60;;;37.70;18.60;;;;;;5004976;28;20049;-76
2022/06/01 08:35:24;;;;;;;3.00;0.60;;;37.30;18.00;;;;;;5016383;28;20030;-75
2022/06/01 08:37:50;;;;;;;1.70;0.55;;;37.50;19.00;;;;;;5001984;28;20032;-76
2022/06/01 08:40:20;;;;;;;1.17;0.47;;;37.70;19.00;;;;;;4996727;28;20019;-75
2022/06/01 08:43:11;;;;;;;4.00;0.90;;;37.80;19.00;;;;;;4996651;28;20041;-75
2022/06/01 08:45:37;;;;;;;1.77;0.40;;;37.90;18.30;;;;;;4996820;28;20030;-75
2022/06/01 08:48:04;;;;;;;3.38;1.58;;;37.80;18.80;;;;;;4996835;28;20034;-75
2022/06/01 08:50:34;;;;;;;1.25;0.70;;;37.90;18.60;;;;;;4996687;28;20042;-75
2022/06/01 08:53:03;;;;;;;1.38;0.43;;;37.60;17.30;;;;;;4996242;28;20042;-75
2022/06/01 08:55:51;;;;;;;1.20;0.55;;;36.80;17.70;;;;;;4996456;28;20030;-75
2022/06/01 08:58:21;;;;;;;2.33;0.55;;;36.80;18.40;;;;;;5004722;28;20045;-75
2022/06/01 09:01:05;;;;;;;2.17;0.60;;;36.80;19.00;;;;;;5015900;28;20399;-75
2022/06/01 09:03:48;;;;;;;1.25;0.28;;;36.70;18.00;;;;;;5013952;28;20026;-75
2022/06/01 09:06:26;;;;;;;1.60;0.50;;;36.60;18.70;;;;;;5004267;28;20077;-75
2022/06/01 09:09:05;;;;;;;1.38;0.45;;;36.80;18.90;;;;;;4996297;28;20134;-75
2022/06/01 09:11:34;;;;;;;1.73;0.50;;;37.10;19.20;;;;;;5004931;28;20018;-75
2022/06/01 09:14:13;;;;;;;2.72;0.43;;;37.30;18.80;;;;;;5008227;28;20042;-75
2022/06/01 09:16:43;;;;;;;1.27;0.38;;;37.50;19.20;;;;;;4996271;28;20062;-75
2022/06/01 09:19:14;;;;;;;2.05;0.50;;;37.80;18.60;;;;;;4995978;28;20034;-75
2022/06/01 09:24:29;;;;;;;1.30;0.40;;;37.60;19.00;;;;;;5006218;28;20061;-75
2022/06/01 09:27:04;;;;;;;2.08;0.50;;;38.10;18.70;;;;;;4996398;28;20038;-75
2022/06/01 09:29:42;;;;;;;1.92;0.60;;;38.30;19.10;;;;;;5010862;28;20031;-75
2022/06/01 09:32:12;;;;;;;;;;;38.40;18.50;;;;;;4997947;28;20023;-75
2022/06/01 09:34:44;;;;;;;2.10;0.68;;;38.80;18.40;;;;;;5004214;28;20068;-75
2022/06/01 09:37:21;;;;;;;2.28;0.30;;;38.50;18.40;;;;;;5010802;28;20030;-75
2022/06/01 09:39:59;;;;;;;2.75;0.52;;;38.60;18.80;;;;;;4995716;28;20075;-75
2022/06/01 09:42:37;;;;;;;6.75;0.60;;;38.60;18.70;;;;;;4995415;28;20046;-75
2022/06/01 09:45:22;;;;;;;2.83;0.85;;;38.90;18.90;;;;;;4996164;28;20070;-75
2022/06/01 09:47:50;;;;;;;3.60;1.10;;;39.00;18.90;;;;;;4998703;28;20022;-75
2022/06/01 09:50:26;;;;;;;1.40;0.52;;;39.00;18.60;;;;;;5014009;28;20080;-75
2022/06/01 09:52:59;;;;;;;3.92;0.80;;;39.30;18.10;;;;;;5014498;28;20029;-75
2022/06/01 09:55:27;;;;;;;3.55;0.68;;;38.80;17.70;;;;;;5003462;28;20038;-75
2022/06/01 09:58:09;;;;;;;2.03;0.65;;;38.70;18.40;;;;;;4999584;28;20484;-75
2022/06/01 10:06:30;;;;;;;0.77;0.30;;;38.80;18.60;;;;;;5009966;28;20048;-75
2022/06/01 10:08:58;;;;;;;3.40;0.52;;;38.60;18.30;;;;;;5013442;28;20026;-75
2022/06/01 10:11:46;;;;;;;1.35;0.65;;;38.60;19.50;;;;;;5008735;28;20646;-75
2022/06/01 10:14:20;;;;;;;1.35;0.47;;;38.80;18.50;;;;;;4999592;28;20141;-75
2022/06/01 10:17:11;;;;;;;2.35;0.57;;;38.00;18.90;;;;;;5002221;28;20058;-75
2022/06/01 10:19:42;;;;;;;3.10;0.60;;;36.80;20.00;;;;;;4995874;28;20078;-75
2022/06/01 10:22:18;;;;;;;1.08;0.35;;;36.60;20.40;;;;;;5014053;28;20022;-75
2022/06/01 10:24:56;;;;;;;1.42;0.40;;;36.00;21.70;;;;;;5009561;28;20062;-75
2022/06/01 10:27:29;;;;;;;2.55;0.68;;;35.40;21.50;;;;;;5004200;28;20154;-75
2022/06/01 10:30:13;;;;;;;1.00;0.50;;;34.10;21.80;;;;;;5014509;28;20061;-75
2022/06/01 10:32:55;;;;;;;1.98;0.45;;;34.00;21.40;;;;;;5011634;28;20061;-75
2022/06/01 10:35:35;;;;;;;1.00;0.35;;;34.10;22.20;;;;;;5014386;28;20112;-75
2022/06/01 10:38:03;;;;;;;0.88;0.38;;;33.90;23.40;;;;;;5014288;28;20025;-75
2022/06/01 10:40:37;;;;;;;3.85;0.60;;;33.10;23.80;;;;;;5001718;28;20026;-75
2022/06/01 10:43:19;;;;;;;1.75;0.60;;;32.00;24.80;;;;;;5001914;28;20034;-75
2022/06/01 10:45:52;;;;;;;1.98;0.50;;;31.20;25.90;;;;;;5012756;28;20060;-75
2022/06/01 10:48:23;;;;;;;2.58;0.70;;;30.60;25.70;;;;;;4995988;28;20516;-75
2022/06/01 10:51:11;;;;;;;2.25;0.80;;;30.30;26.50;;;;;;5009396;28;20588;-75
2022/06/01 10:54:04;;;;;;;1.58;0.57;;;30.00;26.90;;;;;;4994576;28;20058;-75
2022/06/01 10:56:30;;;;;;;2.05;0.60;;;29.80;27.30;;;;;;4994378;28;20026;-75
2022/06/01 10:59:00;;;;;;;3.25;0.80;;;29.50;27.90;;;;;;4994185;28;20030;-75
2022/06/01 11:01:32;;;;;;;1.15;0.50;;;29.30;28.60;;;;;;4994072;28;20113;-75
2022/06/01 11:04:12;;;;;;;3.15;0.88;;;29.10;28.00;;;;;;4994132;28;20106;-74
2022/06/01 11:07:03;;;;;;;2.25;0.60;;;29.10;28.30;;;;;;4994239;28;20838;-75
2022/06/01 11:10:00;;;;;;;1.83;0.60;;;28.90;28.00;;;;;;4994085;28;20031;-74
2022/06/01 11:12:44;;;;;;;2.30;0.70;;;28.80;29.10;;;;;;5010148;28;20518;-74
2022/06/01 11:15:13;;;;;;;1.52;0.70;;;29.00;28.60;;;;;;5013693;28;20416;-75
2022/06/01 11:17:45;;;;;;;2.50;0.80;;;29.10;27.70;;;;;;5009360;28;20786;-75
2022/06/01 11:20:29;;;;;;;2.53;0.73;;;29.20;27.60;;;;;;5012155;28;20029;-75
2022/06/01 11:23:33;;;;;;;2.28;0.80;;;29.20;27.20;;;;;;5012203;28;20022;-74
2022/06/01 11:26:17;;;;;;;1.23;0.60;;;28.80;26.90;;;;;;4996956;28;20038;-75
2022/06/01 11:29:03;;;;;;;1.10;0.63;;;28.80;28.30;;;;;;4993969;28;20496;-74
2022/06/01 11:31:30;;;;;;;3.58;0.70;;;28.90;28.80;;;;;;4993914;28;20101;-75
2022/06/01 11:34:12;;;;;;;2.00;0.90;;;28.80;28.80;;;;;;4999940;28;20397;-75
2022/06/01 11:36:41;;;;;;;1.95;0.85;;;28.80;29.40;;;;;;4992461;28;20504;-74
2022/06/01 11:39:09;;;;;;;2.03;0.68;;;28.90;29.50;;;;;;4993791;28;20193;-74
2022/06/01 11:41:39;;;;;;;1.93;0.50;;;28.70;28.30;;;;;;4993418;28;20050;-74
2022/06/01 11:44:11;;;;;;;1.45;0.73;;;28.70;28.30;;;;;;5009838;28;20500;-74
2022/06/01 11:46:50;;;;;;;1.83;0.50;;;28.30;28.50;;;;;;5013475;28;20030;-74
2022/06/01 11:49:33;;;;;;;1.52;0.68;;;28.10;28.30;;;;;;5010829;28;20029;-73
2022/06/01 11:52:23;;;;;;;2.30;0.60;;;27.90;29.00;;;;;;4993676;28;20452;-73
2022/06/01 11:55:16;;;;;;;3.50;0.80;;;27.60;28.70;;;;;;5002885;28;20036;-73
2022/06/01 11:57:45;;;;;;;2.13;0.70;;;27.40;31.00;;;;;;5012130;28;20064;-74
2022/06/01 12:00:36;;;;;;;3.00;0.70;;;27.30;29.30;;;;;;5004211;28;20045;-74
2022/06/01 12:03:50;;;;;;;4.63;1.00;;;27.30;28.50;;;;;;4993589;28;20085;-74
2022/06/01 12:06:46;;;;;;;2.60;0.70;;;27.60;32.00;;;;;;4998280;28;20504;-73
2022/06/01 12:09:33;;;;;;;2.33;0.70;;;27.90;29.20;;;;;;5009705;28;20683;-73
2022/06/01 12:12:00;;;;;;;1.95;0.80;;;28.30;28.30;;;;;;5011861;28;20404;-74
2022/06/01 12:14:41;;;;;;;3.47;1.00;;;28.20;29.10;;;;;;5003718;28;20025;-75
2022/06/01 12:17:18;;;;;;;1.20;0.60;;;28.10;29.10;;;;;;5003811;28;20064;-74
2022/06/01 12:19:47;;;;;;;2.03;1.10;;;28.00;30.10;;;;;;5010155;28;20377;-75
2022/06/01 12:28:31;;;;;;;1.88;0.60;;;27.20;31.20;;;;;;5004471;28;20037;-75
2022/06/01 12:31:17;;;;;;;2.58;0.80;;;27.30;30.20;;;;;;5011058;28;20504;-76
2022/06/01 12:34:18;;;;;;;2.88;0.68;;;27.30;31.30;;;;;;5015215;28;20057;-76
2022/06/01 12:37:15;;;;;;;3.75;0.90;;;27.10;31.40;;;;;;5014535;28;20038;-76
2022/06/01 12:39:43;;;;;;;1.83;0.80;;;27.20;30.30;;;;;;5014062;28;20042;-76
2022/06/01 12:42:37;;;;;;;2.83;0.80;;;27.10;31.40;;;;;;5015208;28;20054;-76
2022/06/01 12:45:11;;;;;;;2.08;0.70;;;27.20;31.70;;;;;;5013764;28;20072;-76
2022/06/01 12:47:42;;;;;;;2.15;0.75;;;27.30;30.70;;;;;;5011144;28;20022;-76
2022/06/01 12:50:20;;;;;;;2.22;0.85;;;26.90;31.50;;;;;;5011358;28;20046;-76
2022/06/01 12:52:47;;;;;;;5.72;1.25;;;26.60;31.30;;;;;;4996402;28;20520;-76
2022/06/01 12:55:24;;;;;;;2.38;0.77;;;26.40;31.90;;;;;;5004629;28;20025;-76
2022/06/01 12:57:58;;;;;;;2.10;0.80;;;26.30;32.40;;;;;;5015593;28;20018;-76
2022/06/01 13:00:28;;;;;;;1.60;0.70;;;26.00;32.60;;;;;;4996202;28;20080;-76
2022/06/01 13:02:54;;;;;;;1.65;0.65;;;25.80;32.70;;;;;;4995167;28;20550;-76
2022/06/01 13:05:35;;;;;;;2.58;0.90;;;25.70;32.90;;;;;;4996412;28;20069;-76
2022/06/01 13:08:03;;;;;;;2.78;0.75;;;25.80;32.90;;;;;;5008963;28;20029;-76
2022/06/01 13:10:31;;;;;;;2.38;0.90;;;25.90;32.60;;;;;;5001805;28;20026;-76
2022/06/01 13:13:01;;;;;;;5.60;0.80;;;26.00;33.90;;;;;;5014516;28;20117;-76
2022/06/01 13:15:28;;;;;;;3.05;1.20;;;26.10;34.20;;;;;;5013716;28;20064;-75
2022/06/01 13:18:00;;;;;;;1.65;0.98;;;26.00;34.10;;;;;;5014199;28;20033;-75
2022/06/01 13:20:38;;;;;;;1.75;0.80;;;26.20;32.30;;;;;;5003018;28;20108;-75
2022/06/01 13:23:30;;;;;;;4.65;0.82;;;26.30;33.60;;;;;;5014236;28;20025;-75
2022/06/01 13:26:02;;;;;;;5.18;2.08;;;26.50;32.30;;;;;;5011831;28;20030;-75
2022/06/01 13:28:28;;;;;;;2.38;0.73;;;26.60;31.00;;;;;;5013236;28;20116;-75
2022/06/01 13:30:56;;;;;;;2.55;0.82;;;26.60;31.10;;;;;;5015419;28;20408;-75
2022/06/01 13:33:43;;;;;;;1.85;0.88;;;26.60;31.90;;;;;;5015149;28;20387;-75
2022/06/01 13:36:24;;;;;;;1.85;0.70;;;26.50;30.40;;;;;;5009918;28;20042;-75
2022/06/01 13:38:52;;;;;;;2.75;0.80;;;26.70;32.30;;;;;;5003362;28;20113;-75